Terminal Aerodrome Forecast
Issued by NWS

Home | Current Version | Previous Version | Text Only | Print | Product List | Glossary On
Versions: 1 2 3 4 5 6 7 8 9 10 11 12 13 14 15 16 17 18
000
FTUS46 KPDT 211100
TAFBDN
TAF
KBDN 211120Z 2112/2212 23010KT P6SM -RA OVC045
     FM211500 28010KT P6SM -RA OVC045
     FM211800 26012KT P6SM -RA OVC030
     FM220300 36009KT P6SM OVC025=

USA.gov is the U.S. government's official web portal to all federal, state and local government web resources and services.